sensor_id;sensor_type;location;lat;lon;timestamp;P1;durP1;ratioP1;P2;durP2;ratioP2
73684;SDS011;61985;51.070;14.064;2023-07-22T04:52:46;15.95;;;5.50;;
73684;SDS011;61985;51.070;14.064;2023-07-22T04:55:38;10.30;;;4.72;;
73684;SDS011;61985;51.070;14.064;2023-07-22T04:58:13;12.45;;;5.13;;
73684;SDS011;61985;51.070;14.064;2023-07-22T05:00:54;11.25;;;4.93;;
73684;SDS011;61985;51.070;14.064;2023-07-22T05:03:41;10.13;;;4.65;;
73684;SDS011;61985;51.070;14.064;2023-07-22T05:39:55;9.57;;;5.35;;
73684;SDS011;61985;51.070;14.064;2023-07-22T05:42:22;11.35;;;5.40;;
73684;SDS011;61985;51.070;14.064;2023-07-22T05:44:47;11.55;;;5.55;;
73684;SDS011;61985;51.070;14.064;2023-07-22T05:47:13;12.55;;;5.70;;
73684;SDS011;61985;51.070;14.064;2023-07-22T05:49:39;18.58;;;6.18;;
73684;SDS011;61985;51.070;14.064;2023-07-22T05:52:04;8.07;;;5.55;;
73684;SDS011;61985;51.070;14.064;2023-07-22T05:54:30;13.13;;;5.82;;
73684;SDS011;61985;51.070;14.064;2023-07-22T05:56:55;11.90;;;5.63;;
73684;SDS011;61985;51.070;14.064;2023-07-22T06:02:16;8.25;;;5.30;;
73684;SDS011;61985;51.070;14.064;2023-07-22T06:04:43;13.38;;;6.10;;
73684;SDS011;61985;51.070;14.064;2023-07-22T06:07:08;12.02;;;6.30;;
73684;SDS011;61985;51.070;14.064;2023-07-22T06:09:34;10.32;;;6.05;;
73684;SDS011;61985;51.070;14.064;2023-07-22T06:12:00;11.32;;;5.68;;
73684;SDS011;61985;51.070;14.064;2023-07-22T06:14:26;9.25;;;5.93;;
73684;SDS011;61985;51.070;14.064;2023-07-22T06:16:52;12.70;;;5.88;;
73684;SDS011;61985;51.070;14.064;2023-07-22T06:19:18;11.25;;;6.30;;
73684;SDS011;61985;51.070;14.064;2023-07-22T06:21:43;9.85;;;5.80;;
73684;SDS011;61985;51.070;14.064;2023-07-22T06:24:09;9.43;;;5.63;;
73684;SDS011;61985;51.070;14.064;2023-07-22T06:26:35;27.65;;;7.35;;
73684;SDS011;61985;51.070;14.064;2023-07-22T06:29:00;13.70;;;5.90;;
73684;SDS011;61985;51.070;14.064;2023-07-22T06:31:25;9.23;;;6.03;;
73684;SDS011;61985;51.070;14.064;2023-07-22T06:33:55;10.63;;;5.60;;
73684;SDS011;61985;51.070;14.064;2023-07-22T06:36:21;13.23;;;5.28;;
73684;SDS011;61985;51.070;14.064;2023-07-22T06:38:47;9.88;;;5.47;;
73684;SDS011;61985;51.070;14.064;2023-07-22T06:41:12;8.55;;;5.57;;
73684;SDS011;61985;51.070;14.064;2023-07-22T06:43:38;12.00;;;4.95;;
73684;SDS011;61985;51.070;14.064;2023-07-22T06:46:03;10.77;;;5.90;;
73684;SDS011;61985;51.070;14.064;2023-07-22T06:48:28;12.23;;;5.15;;
73684;SDS011;61985;51.070;14.064;2023-07-22T06:50:54;10.27;;;4.88;;
73684;SDS011;61985;51.070;14.064;2023-07-22T06:53:19;14.10;;;5.18;;
73684;SDS011;61985;51.070;14.064;2023-07-22T06:55:48;9.85;;;4.78;;
73684;SDS011;61985;51.070;14.064;2023-07-22T06:58:15;11.70;;;4.18;;
73684;SDS011;61985;51.070;14.064;2023-07-22T07:01:01;10.23;;;5.20;;
73684;SDS011;61985;51.070;14.064;2023-07-22T07:03:37;12.65;;;4.80;;
73684;SDS011;61985;51.070;14.064;2023-07-22T07:06:08;9.55;;;4.80;;
73684;SDS011;61985;51.070;14.064;2023-07-22T07:08:46;8.50;;;4.30;;
73684;SDS011;61985;51.070;14.064;2023-07-22T07:11:11;11.23;;;4.68;;
73684;SDS011;61985;51.070;14.064;2023-07-22T07:13:37;11.15;;;4.68;;
73684;SDS011;61985;51.070;14.064;2023-07-22T07:16:19;19.40;;;4.55;;
73684;SDS011;61985;51.070;14.064;2023-07-22T07:18:46;11.43;;;4.50;;
73684;SDS011;61985;51.070;14.064;2023-07-22T07:21:12;12.52;;;5.53;;
73684;SDS011;61985;51.070;14.064;2023-07-22T07:23:37;12.65;;;4.22;;
73684;SDS011;61985;51.070;14.064;2023-07-22T07:26:02;7.80;;;4.25;;
73684;SDS011;61985;51.070;14.064;2023-07-22T07:28:28;10.55;;;4.43;;
73684;SDS011;61985;51.070;14.064;2023-07-22T07:30:53;7.78;;;4.60;;
73684;SDS011;61985;51.070;14.064;2023-07-22T07:33:18;11.88;;;4.07;;
73684;SDS011;61985;51.070;14.064;2023-07-22T07:35:47;7.85;;;4.32;;
73684;SDS011;61985;51.070;14.064;2023-07-22T07:38:12;11.25;;;3.90;;
73684;SDS011;61985;51.070;14.064;2023-07-22T07:40:37;6.90;;;3.75;;
73684;SDS011;61985;51.070;14.064;2023-07-22T07:43:03;10.55;;;4.15;;
73684;SDS011;61985;51.070;14.064;2023-07-22T07:45:28;8.80;;;3.90;;
73684;SDS011;61985;51.070;14.064;2023-07-22T07:47:54;5.80;;;3.63;;
73684;SDS011;61985;51.070;14.064;2023-07-22T07:50:19;6.45;;;3.70;;
73684;SDS011;61985;51.070;14.064;2023-07-22T07:52:45;6.10;;;3.72;;
73684;SDS011;61985;51.070;14.064;2023-07-22T07:55:10;6.35;;;3.30;;
73684;SDS011;61985;51.070;14.064;2023-07-22T07:57:36;5.60;;;3.20;;
73684;SDS011;61985;51.070;14.064;2023-07-22T08:00:01;9.65;;;3.70;;
73684;SDS011;61985;51.070;14.064;2023-07-22T08:02:28;7.53;;;3.80;;
73684;SDS011;61985;51.070;14.064;2023-07-22T08:04:53;8.77;;;3.58;;
73684;SDS011;61985;51.070;14.064;2023-07-22T08:07:18;8.45;;;3.80;;
73684;SDS011;61985;51.070;14.064;2023-07-22T08:09:46;5.57;;;3.00;;
73684;SDS011;61985;51.070;14.064;2023-07-22T08:12:13;5.90;;;3.15;;
73684;SDS011;61985;51.070;14.064;2023-07-22T08:14:39;6.13;;;3.50;;
73684;SDS011;61985;51.070;14.064;2023-07-22T08:17:05;7.43;;;3.78;;
73684;SDS011;61985;51.070;14.064;2023-07-22T08:19:30;7.95;;;3.70;;
73684;SDS011;61985;51.070;14.064;2023-07-22T08:21:55;9.88;;;3.63;;
73684;SDS011;61985;51.070;14.064;2023-07-22T08:24:21;8.32;;;4.47;;
73684;SDS011;61985;51.070;14.064;2023-07-22T08:26:46;7.38;;;3.63;;
73684;SDS011;61985;51.070;14.064;2023-07-22T08:29:12;6.20;;;3.38;;
73684;SDS011;61985;51.070;14.064;2023-07-22T08:31:38;10.13;;;3.45;;
73684;SDS011;61985;51.070;14.064;2023-07-22T08:34:03;4.93;;;2.97;;
73684;SDS011;61985;51.070;14.064;2023-07-22T08:36:29;5.72;;;3.30;;
73684;SDS011;61985;51.070;14.064;2023-07-22T08:38:54;6.88;;;3.50;;
73684;SDS011;61985;51.070;14.064;2023-07-22T08:41:20;8.48;;;3.35;;
73684;SDS011;61985;51.070;14.064;2023-07-22T08:43:47;7.07;;;3.63;;
73684;SDS011;61985;51.070;14.064;2023-07-22T08:46:15;13.20;;;4.80;;
73684;SDS011;61985;51.070;14.064;2023-07-22T08:48:44;7.70;;;3.47;;
73684;SDS011;61985;51.070;14.064;2023-07-22T08:51:14;8.85;;;3.38;;
73684;SDS011;61985;51.070;14.064;2023-07-22T08:53:41;7.70;;;3.50;;
73684;SDS011;61985;51.070;14.064;2023-07-22T08:56:08;10.43;;;3.38;;
73684;SDS011;61985;51.070;14.064;2023-07-22T08:58:35;7.78;;;3.72;;
73684;SDS011;61985;51.070;14.064;2023-07-22T09:01:01;10.00;;;3.35;;
73684;SDS011;61985;51.070;14.064;2023-07-22T09:03:27;5.32;;;3.15;;
73684;SDS011;61985;51.070;14.064;2023-07-22T09:05:53;6.00;;;3.17;;
73684;SDS011;61985;51.070;14.064;2023-07-22T09:08:19;7.90;;;3.42;;
73684;SDS011;61985;51.070;14.064;2023-07-22T09:10:45;6.22;;;3.28;;
73684;SDS011;61985;51.070;14.064;2023-07-22T09:13:12;6.18;;;3.47;;
73684;SDS011;61985;51.070;14.064;2023-07-22T09:15:38;6.55;;;2.97;;
73684;SDS011;61985;51.070;14.064;2023-07-22T09:18:04;6.90;;;3.22;;
73684;SDS011;61985;51.070;14.064;2023-07-22T09:20:30;9.00;;;3.50;;
73684;SDS011;61985;51.070;14.064;2023-07-22T09:22:56;7.35;;;3.25;;
73684;SDS011;61985;51.070;14.064;2023-07-22T09:25:25;10.23;;;3.47;;
73684;SDS011;61985;51.070;14.064;2023-07-22T09:27:52;10.82;;;3.45;;
73684;SDS011;61985;51.070;14.064;2023-07-22T09:32:59;6.80;;;3.20;;
73684;SDS011;61985;51.070;14.064;2023-07-22T09:35:27;6.28;;;3.35;;
73684;SDS011;61985;51.070;14.064;2023-07-22T09:37:54;5.50;;;2.85;;
73684;SDS011;61985;51.070;14.064;2023-07-22T09:40:21;6.18;;;3.20;;
73684;SDS011;61985;51.070;14.064;2023-07-22T09:42:50;6.53;;;2.97;;
73684;SDS011;61985;51.070;14.064;2023-07-22T09:45:17;6.15;;;2.45;;
73684;SDS011;61985;51.070;14.064;2023-07-22T09:47:46;6.40;;;3.15;;
73684;SDS011;61985;51.070;14.064;2023-07-22T09:50:17;7.85;;;3.40;;
73684;SDS011;61985;51.070;14.064;2023-07-22T09:52:44;5.70;;;3.67;;
73684;SDS011;61985;51.070;14.064;2023-07-22T09:55:18;9.38;;;3.58;;
73684;SDS011;61985;51.070;14.064;2023-07-22T09:57:52;5.72;;;2.97;;
73684;SDS011;61985;51.070;14.064;2023-07-22T10:00:20;7.63;;;3.17;;
73684;SDS011;61985;51.070;14.064;2023-07-22T10:02:48;6.70;;;3.15;;
73684;SDS011;61985;51.070;14.064;2023-07-22T10:05:24;5.68;;;2.75;;
73684;SDS011;61985;51.070;14.064;2023-07-22T10:07:54;4.35;;;2.22;;
73684;SDS011;61985;51.070;14.064;2023-07-22T10:10:22;5.45;;;2.47;;
73684;SDS011;61985;51.070;14.064;2023-07-22T10:12:51;5.20;;;2.95;;
73684;SDS011;61985;51.070;14.064;2023-07-22T10:15:18;7.38;;;2.97;;
73684;SDS011;61985;51.070;14.064;2023-07-22T10:17:44;3.15;;;2.28;;
73684;SDS011;61985;51.070;14.064;2023-07-22T10:20:11;5.15;;;2.35;;
73684;SDS011;61985;51.070;14.064;2023-07-22T10:22:43;5.35;;;2.70;;
73684;SDS011;61985;51.070;14.064;2023-07-22T10:25:19;6.15;;;2.47;;
73684;SDS011;61985;51.070;14.064;2023-07-22T10:27:46;7.57;;;2.72;;
73684;SDS011;61985;51.070;14.064;2023-07-22T10:30:14;5.25;;;2.50;;
73684;SDS011;61985;51.070;14.064;2023-07-22T10:32:41;5.72;;;2.70;;
73684;SDS011;61985;51.070;14.064;2023-07-22T10:35:08;4.65;;;2.63;;
73684;SDS011;61985;51.070;14.064;2023-07-22T10:37:40;3.33;;;2.30;;
73684;SDS011;61985;51.070;14.064;2023-07-22T10:40:23;3.55;;;2.40;;
73684;SDS011;61985;51.070;14.064;2023-07-22T10:45:54;4.35;;;2.50;;
73684;SDS011;61985;51.070;14.064;2023-07-22T10:48:23;6.38;;;2.28;;
73684;SDS011;61985;51.070;14.064;2023-07-22T10:50:53;3.88;;;2.50;;
73684;SDS011;61985;51.070;14.064;2023-07-22T11:01:22;3.05;;;2.13;;
73684;SDS011;61985;51.070;14.064;2023-07-22T11:09:42;4.78;;;2.38;;
73684;SDS011;61985;51.070;14.064;2023-07-22T11:12:03;3.67;;;2.03;;
73684;SDS011;61985;51.070;14.064;2023-07-22T11:17:15;6.05;;;2.45;;
73684;SDS011;61985;51.070;14.064;2023-07-22T11:19:42;4.93;;;2.08;;
73684;SDS011;61985;51.070;14.064;2023-07-22T11:22:08;5.50;;;2.40;;
73684;SDS011;61985;51.070;14.064;2023-07-22T11:24:34;4.00;;;2.28;;
73684;SDS011;61985;51.070;14.064;2023-07-22T11:27:03;4.38;;;2.45;;
73684;SDS011;61985;51.070;14.064;2023-07-22T11:29:30;3.70;;;2.53;;
73684;SDS011;61985;51.070;14.064;2023-07-22T11:31:56;3.28;;;2.30;;
73684;SDS011;61985;51.070;14.064;2023-07-22T11:34:22;4.15;;;2.20;;
73684;SDS011;61985;51.070;14.064;2023-07-22T11:36:51;4.25;;;2.58;;
73684;SDS011;61985;51.070;14.064;2023-07-22T11:39:18;4.70;;;2.33;;
73684;SDS011;61985;51.070;14.064;2023-07-22T11:41:45;3.35;;;2.08;;
73684;SDS011;61985;51.070;14.064;2023-07-22T11:44:13;3.30;;;2.25;;
73684;SDS011;61985;51.070;14.064;2023-07-22T11:49:21;7.90;;;2.88;;
73684;SDS011;61985;51.070;14.064;2023-07-22T11:51:51;3.85;;;2.20;;
73684;SDS011;61985;51.070;14.064;2023-07-22T11:54:20;3.55;;;2.30;;
73684;SDS011;61985;51.070;14.064;2023-07-22T11:56:46;6.28;;;2.47;;
73684;SDS011;61985;51.070;14.064;2023-07-22T11:59:11;3.75;;;2.20;;
73684;SDS011;61985;51.070;14.064;2023-07-22T12:01:37;4.22;;;2.15;;
73684;SDS011;61985;51.070;14.064;2023-07-22T12:04:08;4.45;;;2.28;;
73684;SDS011;61985;51.070;14.064;2023-07-22T12:06:35;5.05;;;2.78;;
73684;SDS011;61985;51.070;14.064;2023-07-22T12:09:01;4.32;;;2.38;;
73684;SDS011;61985;51.070;14.064;2023-07-22T12:11:26;3.72;;;2.40;;
73684;SDS011;61985;51.070;14.064;2023-07-22T12:14:13;5.22;;;2.25;;
73684;SDS011;61985;51.070;14.064;2023-07-22T12:16:39;3.38;;;2.17;;
73684;SDS011;61985;51.070;14.064;2023-07-22T12:19:06;3.92;;;2.15;;
73684;SDS011;61985;51.070;14.064;2023-07-22T12:21:33;4.90;;;2.60;;
73684;SDS011;61985;51.070;14.064;2023-07-22T12:23:59;3.78;;;2.50;;
73684;SDS011;61985;51.070;14.064;2023-07-22T12:26:25;4.80;;;2.60;;
73684;SDS011;61985;51.070;14.064;2023-07-22T12:28:51;4.25;;;2.42;;
73684;SDS011;61985;51.070;14.064;2023-07-22T12:31:16;4.28;;;2.53;;
73684;SDS011;61985;51.070;14.064;2023-07-22T12:33:42;3.72;;;2.58;;
73684;SDS011;61985;51.070;14.064;2023-07-22T12:36:07;4.30;;;2.20;;
73684;SDS011;61985;51.070;14.064;2023-07-22T12:38:33;4.78;;;2.38;;
73684;SDS011;61985;51.070;14.064;2023-07-22T12:41:00;3.88;;;2.60;;
73684;SDS011;61985;51.070;14.064;2023-07-22T12:43:26;6.45;;;2.60;;
73684;SDS011;61985;51.070;14.064;2023-07-22T12:45:51;3.75;;;2.50;;
73684;SDS011;61985;51.070;14.064;2023-07-22T12:48:17;4.35;;;2.75;;
73684;SDS011;61985;51.070;14.064;2023-07-22T12:50:42;10.52;;;2.53;;
73684;SDS011;61985;51.070;14.064;2023-07-22T12:53:14;3.53;;;2.03;;
73684;SDS011;61985;51.070;14.064;2023-07-22T12:55:39;13.77;;;2.50;;
73684;SDS011;61985;51.070;14.064;2023-07-22T12:58:05;5.13;;;2.35;;
73684;SDS011;61985;51.070;14.064;2023-07-22T13:00:30;4.75;;;2.40;;
73684;SDS011;61985;51.070;14.064;2023-07-22T13:02:56;5.88;;;2.30;;
73684;SDS011;61985;51.070;14.064;2023-07-22T13:05:22;2.72;;;2.03;;
73684;SDS011;61985;51.070;14.064;2023-07-22T13:07:47;3.97;;;2.22;;
73684;SDS011;61985;51.070;14.064;2023-07-22T13:10:13;4.28;;;2.45;;
73684;SDS011;61985;51.070;14.064;2023-07-22T13:12:41;4.45;;;2.28;;
73684;SDS011;61985;51.070;14.064;2023-07-22T13:15:07;4.15;;;2.38;;
73684;SDS011;61985;51.070;14.064;2023-07-22T13:17:32;3.65;;;2.30;;
73684;SDS011;61985;51.070;14.064;2023-07-22T13:19:58;3.83;;;2.30;;
73684;SDS011;61985;51.070;14.064;2023-07-22T13:22:23;4.03;;;2.45;;
73684;SDS011;61985;51.070;14.064;2023-07-22T13:24:49;3.70;;;2.35;;
73684;SDS011;61985;51.070;14.064;2023-07-22T13:27:14;3.58;;;2.40;;
73684;SDS011;61985;51.070;14.064;2023-07-22T13:29:39;3.08;;;2.20;;
73684;SDS011;61985;51.070;14.064;2023-07-22T13:32:05;5.95;;;2.88;;
73684;SDS011;61985;51.070;14.064;2023-07-22T13:34:31;3.85;;;2.13;;
73684;SDS011;61985;51.070;14.064;2023-07-22T13:36:57;3.83;;;2.08;;
73684;SDS011;61985;51.070;14.064;2023-07-22T13:39:22;4.03;;;2.10;;
73684;SDS011;61985;51.070;14.064;2023-07-22T13:41:47;3.85;;;2.38;;
73684;SDS011;61985;51.070;14.064;2023-07-22T13:44:13;4.60;;;2.58;;
73684;SDS011;61985;51.070;14.064;2023-07-22T13:46:38;4.72;;;2.20;;
73684;SDS011;61985;51.070;14.064;2023-07-22T13:49:03;3.33;;;2.30;;
73684;SDS011;61985;51.070;14.064;2023-07-22T13:51:29;4.70;;;2.20;;
73684;SDS011;61985;51.070;14.064;2023-07-22T13:53:54;3.17;;;2.05;;
73684;SDS011;61985;51.070;14.064;2023-07-22T13:56:20;3.33;;;2.42;;
73684;SDS011;61985;51.070;14.064;2023-07-22T13:58:45;4.40;;;2.65;;
73684;SDS011;61985;51.070;14.064;2023-07-22T14:01:11;4.68;;;2.40;;
73684;SDS011;61985;51.070;14.064;2023-07-22T14:03:36;5.40;;;2.65;;
73684;SDS011;61985;51.070;14.064;2023-07-22T14:06:01;5.70;;;2.70;;
73684;SDS011;61985;51.070;14.064;2023-07-22T14:08:27;4.13;;;2.50;;
73684;SDS011;61985;51.070;14.064;2023-07-22T14:10:53;5.35;;;2.67;;
73684;SDS011;61985;51.070;14.064;2023-07-22T14:13:19;3.47;;;2.40;;
73684;SDS011;61985;51.070;14.064;2023-07-22T14:15:44;3.35;;;2.17;;
73684;SDS011;61985;51.070;14.064;2023-07-22T14:18:10;3.25;;;2.20;;
73684;SDS011;61985;51.070;14.064;2023-07-22T14:20:35;2.92;;;2.22;;
73684;SDS011;61985;51.070;14.064;2023-07-22T14:23:00;4.70;;;2.50;;
73684;SDS011;61985;51.070;14.064;2023-07-22T14:25:26;3.58;;;2.22;;
73684;SDS011;61985;51.070;14.064;2023-07-22T14:27:51;3.80;;;2.45;;
73684;SDS011;61985;51.070;14.064;2023-07-22T14:30:17;4.43;;;2.20;;
73684;SDS011;61985;51.070;14.064;2023-07-22T14:32:42;3.40;;;2.33;;
73684;SDS011;61985;51.070;14.064;2023-07-22T14:35:08;5.32;;;2.80;;
73684;SDS011;61985;51.070;14.064;2023-07-22T14:37:33;4.03;;;2.50;;
73684;SDS011;61985;51.070;14.064;2023-07-22T14:39:59;4.40;;;2.65;;
73684;SDS011;61985;51.070;14.064;2023-07-22T14:42:24;3.47;;;2.20;;
73684;SDS011;61985;51.070;14.064;2023-07-22T14:44:49;3.55;;;2.08;;
73684;SDS011;61985;51.070;14.064;2023-07-22T14:47:15;4.43;;;2.95;;
73684;SDS011;61985;51.070;14.064;2023-07-22T14:49:40;3.90;;;2.58;;
73684;SDS011;61985;51.070;14.064;2023-07-22T14:52:06;3.33;;;2.25;;
73684;SDS011;61985;51.070;14.064;2023-07-22T14:54:32;4.22;;;2.40;;
73684;SDS011;61985;51.070;14.064;2023-07-22T14:56:58;4.53;;;2.88;;
73684;SDS011;61985;51.070;14.064;2023-07-22T14:59:24;3.85;;;2.63;;
73684;SDS011;61985;51.070;14.064;2023-07-22T15:01:49;3.58;;;2.47;;
73684;SDS011;61985;51.070;14.064;2023-07-22T15:04:14;3.38;;;2.10;;
73684;SDS011;61985;51.070;14.064;2023-07-22T15:06:40;4.55;;;2.40;;
73684;SDS011;61985;51.070;14.064;2023-07-22T15:09:05;6.85;;;2.63;;
73684;SDS011;61985;51.070;14.064;2023-07-22T15:11:32;4.10;;;2.42;;
73684;SDS011;61985;51.070;14.064;2023-07-22T15:13:58;6.32;;;2.70;;
73684;SDS011;61985;51.070;14.064;2023-07-22T15:16:24;4.05;;;2.63;;
73684;SDS011;61985;51.070;14.064;2023-07-22T15:18:49;4.45;;;2.85;;
73684;SDS011;61985;51.070;14.064;2023-07-22T15:21:14;3.53;;;2.30;;
73684;SDS011;61985;51.070;14.064;2023-07-22T15:23:40;4.22;;;2.40;;
73684;SDS011;61985;51.070;14.064;2023-07-22T15:26:06;4.72;;;2.83;;
73684;SDS011;61985;51.070;14.064;2023-07-22T15:28:32;4.10;;;2.42;;
73684;SDS011;61985;51.070;14.064;2023-07-22T15:30:57;5.53;;;2.50;;
73684;SDS011;61985;51.070;14.064;2023-07-22T15:33:23;4.97;;;2.78;;
73684;SDS011;61985;51.070;14.064;2023-07-22T15:35:48;4.07;;;2.67;;
73684;SDS011;61985;51.070;14.064;2023-07-22T15:38:13;4.47;;;2.33;;
73684;SDS011;61985;51.070;14.064;2023-07-22T15:40:39;3.67;;;2.60;;
73684;SDS011;61985;51.070;14.064;2023-07-22T15:43:04;4.20;;;2.60;;
73684;SDS011;61985;51.070;14.064;2023-07-22T15:48:14;5.30;;;2.60;;
73684;SDS011;61985;51.070;14.064;2023-07-22T15:50:39;5.00;;;2.58;;
73684;SDS011;61985;51.070;14.064;2023-07-22T15:53:05;7.18;;;3.58;;
73684;SDS011;61985;51.070;14.064;2023-07-22T15:55:33;5.80;;;2.95;;
73684;SDS011;61985;51.070;14.064;2023-07-22T15:58:02;5.63;;;2.70;;
73684;SDS011;61985;51.070;14.064;2023-07-22T16:00:27;4.43;;;2.75;;
73684;SDS011;61985;51.070;14.064;2023-07-22T16:02:53;4.63;;;2.40;;
73684;SDS011;61985;51.070;14.064;2023-07-22T16:05:18;4.55;;;2.50;;
73684;SDS011;61985;51.070;14.064;2023-07-22T16:07:44;4.90;;;2.80;;
73684;SDS011;61985;51.070;14.064;2023-07-22T16:10:10;5.25;;;2.95;;
73684;SDS011;61985;51.070;14.064;2023-07-22T16:12:35;4.25;;;2.53;;
73684;SDS011;61985;51.070;14.064;2023-07-22T16:15:00;4.03;;;2.60;;
73684;SDS011;61985;51.070;14.064;2023-07-22T16:17:26;5.13;;;2.60;;
73684;SDS011;61985;51.070;14.064;2023-07-22T16:19:51;4.18;;;2.70;;
73684;SDS011;61985;51.070;14.064;2023-07-22T16:22:16;4.25;;;2.85;;
73684;SDS011;61985;51.070;14.064;2023-07-22T16:24:42;5.50;;;2.70;;
73684;SDS011;61985;51.070;14.064;2023-07-22T16:27:08;7.13;;;2.50;;
73684;SDS011;61985;51.070;14.064;2023-07-22T16:29:33;7.80;;;2.88;;
73684;SDS011;61985;51.070;14.064;2023-07-22T16:32:01;5.07;;;2.70;;
73684;SDS011;61985;51.070;14.064;2023-07-22T16:34:27;5.03;;;2.85;;
73684;SDS011;61985;51.070;14.064;2023-07-22T16:36:52;4.95;;;2.80;;
73684;SDS011;61985;51.070;14.064;2023-07-22T16:39:18;6.50;;;2.90;;
73684;SDS011;61985;51.070;14.064;2023-07-22T16:41:43;4.88;;;2.78;;
73684;SDS011;61985;51.070;14.064;2023-07-22T16:44:08;6.07;;;3.10;;
73684;SDS011;61985;51.070;14.064;2023-07-22T16:46:34;6.03;;;2.92;;
73684;SDS011;61985;51.070;14.064;2023-07-22T16:48:59;5.07;;;3.22;;
73684;SDS011;61985;51.070;14.064;2023-07-22T16:51:25;7.78;;;3.17;;
73684;SDS011;61985;51.070;14.064;2023-07-22T16:53:51;4.78;;;3.00;;
73684;SDS011;61985;51.070;14.064;2023-07-22T16:56:17;3.78;;;2.63;;
73684;SDS011;61985;51.070;14.064;2023-07-22T16:58:42;6.55;;;3.22;;
73684;SDS011;61985;51.070;14.064;2023-07-22T17:01:08;6.18;;;2.88;;
73684;SDS011;61985;51.070;14.064;2023-07-22T17:03:34;4.90;;;2.90;;
73684;SDS011;61985;51.070;14.064;2023-07-22T17:06:00;7.25;;;3.17;;
73684;SDS011;61985;51.070;14.064;2023-07-22T17:08:25;4.43;;;2.65;;
73684;SDS011;61985;51.070;14.064;2023-07-22T17:11:02;11.93;;;3.47;;
73684;SDS011;61985;51.070;14.064;2023-07-22T17:13:31;5.05;;;2.90;;
73684;SDS011;61985;51.070;14.064;2023-07-22T17:15:56;5.15;;;3.25;;
73684;SDS011;61985;51.070;14.064;2023-07-22T17:18:21;6.82;;;3.28;;
73684;SDS011;61985;51.070;14.064;2023-07-22T17:20:52;6.82;;;3.50;;
73684;SDS011;61985;51.070;14.064;2023-07-22T17:23:25;10.27;;;6.40;;
73684;SDS011;61985;51.070;14.064;2023-07-22T17:25:54;6.38;;;3.63;;
73684;SDS011;61985;51.070;14.064;2023-07-22T17:28:28;7.97;;;4.32;;
73684;SDS011;61985;51.070;14.064;2023-07-22T17:30:58;10.18;;;4.30;;
73684;SDS011;61985;51.070;14.064;2023-07-22T17:36:08;17.77;;;13.68;;
73684;SDS011;61985;51.070;14.064;2023-07-22T17:38:48;5.28;;;2.97;;
73684;SDS011;61985;51.070;14.064;2023-07-22T17:41:19;6.00;;;3.30;;
73684;SDS011;61985;51.070;14.064;2023-07-22T17:43:52;4.72;;;2.90;;
73684;SDS011;61985;51.070;14.064;2023-07-22T17:46:18;4.10;;;2.70;;
73684;SDS011;61985;51.070;14.064;2023-07-22T17:48:57;6.78;;;3.05;;
73684;SDS011;61985;51.070;14.064;2023-07-22T17:51:27;4.85;;;2.80;;
73684;SDS011;61985;51.070;14.064;2023-07-22T17:53:55;7.03;;;2.97;;
73684;SDS011;61985;51.070;14.064;2023-07-22T17:56:23;4.68;;;2.92;;
73684;SDS011;61985;51.070;14.064;2023-07-22T17:58:48;5.50;;;3.00;;
73684;SDS011;61985;51.070;14.064;2023-07-22T18:01:16;5.82;;;3.53;;
73684;SDS011;61985;51.070;14.064;2023-07-22T18:03:44;8.10;;;4.40;;
73684;SDS011;61985;51.070;14.064;2023-07-22T18:06:10;6.45;;;3.58;;
73684;SDS011;61985;51.070;14.064;2023-07-22T18:08:35;6.40;;;3.45;;
73684;SDS011;61985;51.070;14.064;2023-07-22T18:11:03;5.63;;;3.33;;
73684;SDS011;61985;51.070;14.064;2023-07-22T18:13:40;4.80;;;2.97;;
73684;SDS011;61985;51.070;14.064;2023-07-22T18:16:31;4.53;;;2.70;;
73684;SDS011;61985;51.070;14.064;2023-07-22T18:18:56;5.47;;;2.78;;
73684;SDS011;61985;51.070;14.064;2023-07-22T18:21:22;5.75;;;2.92;;
73684;SDS011;61985;51.070;14.064;2023-07-22T18:23:50;6.78;;;3.20;;
73684;SDS011;61985;51.070;14.064;2023-07-22T18:26:18;8.48;;;3.75;;
73684;SDS011;61985;51.070;14.064;2023-07-22T18:28:50;5.55;;;3.05;;
73684;SDS011;61985;51.070;14.064;2023-07-22T18:31:17;7.65;;;3.58;;
73684;SDS011;61985;51.070;14.064;2023-07-22T18:33:46;5.10;;;3.17;;
73684;SDS011;61985;51.070;14.064;2023-07-22T18:36:30;5.15;;;2.80;;
73684;SDS011;61985;51.070;14.064;2023-07-22T18:39:06;5.57;;;3.45;;
73684;SDS011;61985;51.070;14.064;2023-07-22T18:47:02;3.97;;;2.70;;
73684;SDS011;61985;51.070;14.064;2023-07-22T18:50:19;5.43;;;2.67;;
73684;SDS011;61985;51.070;14.064;2023-07-22T18:53:00;8.13;;;3.65;;
73684;SDS011;61985;51.070;14.064;2023-07-22T18:55:49;6.45;;;3.15;;
73684;SDS011;61985;51.070;14.064;2023-07-22T18:58:49;7.10;;;3.58;;
73684;SDS011;61985;51.070;14.064;2023-07-22T19:01:24;5.68;;;3.22;;
73684;SDS011;61985;51.070;14.064;2023-07-22T19:03:49;6.22;;;3.00;;
73684;SDS011;61985;51.070;14.064;2023-07-22T19:06:15;6.45;;;2.90;;
73684;SDS011;61985;51.070;14.064;2023-07-22T19:08:40;4.72;;;3.00;;
73684;SDS011;61985;51.070;14.064;2023-07-22T19:13:41;4.82;;;2.80;;
73684;SDS011;61985;51.070;14.064;2023-07-22T19:16:06;5.13;;;2.75;;
73684;SDS011;61985;51.070;14.064;2023-07-22T19:18:33;4.78;;;2.70;;
73684;SDS011;61985;51.070;14.064;2023-07-22T19:21:02;4.82;;;2.70;;
73684;SDS011;61985;51.070;14.064;2023-07-22T19:23:28;5.85;;;2.90;;
73684;SDS011;61985;51.070;14.064;2023-07-22T19:25:57;5.45;;;2.88;;
73684;SDS011;61985;51.070;14.064;2023-07-22T19:28:23;4.53;;;2.83;;
73684;SDS011;61985;51.070;14.064;2023-07-22T19:30:55;5.45;;;3.40;;
73684;SDS011;61985;51.070;14.064;2023-07-22T19:36:08;5.53;;;2.90;;
73684;SDS011;61985;51.070;14.064;2023-07-22T19:38:36;6.07;;;3.67;;
73684;SDS011;61985;51.070;14.064;2023-07-22T19:41:04;7.72;;;3.20;;
73684;SDS011;61985;51.070;14.064;2023-07-22T19:43:31;6.65;;;3.15;;
73684;SDS011;61985;51.070;14.064;2023-07-22T19:46:15;6.40;;;3.13;;
73684;SDS011;61985;51.070;14.064;2023-07-22T19:48:41;6.13;;;3.58;;
73684;SDS011;61985;51.070;14.064;2023-07-22T19:51:08;5.55;;;3.38;;
73684;SDS011;61985;51.070;14.064;2023-07-22T19:53:34;6.45;;;3.08;;
73684;SDS011;61985;51.070;14.064;2023-07-22T19:56:01;6.13;;;3.20;;
73684;SDS011;61985;51.070;14.064;2023-07-22T19:58:28;6.68;;;3.28;;
73684;SDS011;61985;51.070;14.064;2023-07-22T20:00:54;6.97;;;3.03;;
73684;SDS011;61985;51.070;14.064;2023-07-22T20:03:20;6.00;;;3.40;;
73684;SDS011;61985;51.070;14.064;2023-07-22T20:06:07;6.18;;;3.25;;
73684;SDS011;61985;51.070;14.064;2023-07-22T20:08:39;6.68;;;3.25;;
73684;SDS011;61985;51.070;14.064;2023-07-22T20:11:29;9.95;;;6.03;;
73684;SDS011;61985;51.070;14.064;2023-07-22T20:14:06;6.05;;;3.70;;
73684;SDS011;61985;51.070;14.064;2023-07-22T20:16:32;8.02;;;3.88;;
73684;SDS011;61985;51.070;14.064;2023-07-22T20:19:00;5.75;;;3.70;;
73684;SDS011;61985;51.070;14.064;2023-07-22T20:21:30;7.82;;;4.05;;
